createdAt,value
2023-01-29T00:00:26.100Z,74.114
2023-01-29T00:01:25.866Z,74.140
2023-01-29T00:02:25.837Z,73.967
2023-01-29T00:03:25.925Z,74.184
2023-01-29T00:04:26.177Z,74.285
2023-01-29T00:05:31.029Z,74.070
2023-01-29T00:06:26.126Z,74.108
2023-01-29T00:07:26.047Z,74.280
2023-01-29T00:08:25.902Z,74.171
2023-01-29T00:09:25.581Z,74.074
2023-01-29T00:10:26.364Z,74.238
2023-01-29T00:11:26.071Z,74.404
2023-01-29T00:12:25.972Z,74.171
2023-01-29T00:13:25.829Z,74.180
2023-01-29T00:14:25.587Z,74.213
2023-01-29T00:15:26.440Z,74.369
2023-01-29T00:16:26.196Z,74.211
2023-01-29T00:17:26.119Z,74.316
2023-01-29T00:18:25.925Z,74.482
2023-01-29T00:20:25.499Z,74.283
2023-01-29T00:21:26.190Z,74.175
2023-01-29T00:22:25.886Z,74.301
2023-01-29T00:23:25.643Z,74.282
2023-01-29T00:25:26.214Z,74.308
2023-01-29T00:26:26.113Z,74.447
2023-01-29T00:27:26.007Z,74.406
2023-01-29T00:28:25.766Z,74.312
2023-01-29T00:30:26.268Z,74.116
2023-01-29T00:31:26.319Z,73.994
2023-01-29T00:32:25.686Z,74.270
2023-01-29T00:33:25.630Z,74.383
2023-01-29T00:34:26.338Z,74.295
2023-01-29T00:35:27.695Z,74.013
2023-01-29T00:36:25.410Z,74.346
2023-01-29T00:37:26.028Z,74.188
2023-01-29T00:38:30.147Z,74.402
2023-01-29T00:39:42.562Z,74.093
2023-01-29T00:41:25.808Z,74.322
2023-01-29T00:42:25.610Z,74.179
2023-01-29T00:43:26.404Z,74.312
2023-01-29T00:44:26.123Z,74.423
2023-01-29T00:45:25.847Z,74.282
2023-01-29T00:46:25.560Z,74.314
2023-01-29T00:47:26.261Z,74.190
2023-01-29T00:48:25.990Z,74.283
2023-01-29T00:49:25.674Z,74.266
2023-01-29T00:50:25.582Z,74.215
2023-01-29T00:51:26.234Z,74.245
2023-01-29T00:52:26.203Z,74.161
2023-01-29T00:53:25.967Z,74.390
2023-01-29T00:54:25.652Z,74.222
2023-01-29T00:55:26.323Z,74.049
2023-01-29T00:56:25.995Z,74.344
2023-01-29T00:57:25.676Z,74.228
2023-01-29T00:58:26.379Z,74.150
2023-01-29T00:59:26.075Z,74.076
2023-01-29T01:00:25.842Z,74.100
2023-01-29T01:01:25.928Z,74.303
2023-01-29T01:02:25.700Z,74.594
2023-01-29T01:03:25.456Z,74.436
2023-01-29T01:04:26.179Z,74.554
2023-01-29T01:05:25.801Z,74.566
2023-01-29T01:06:25.496Z,74.255
2023-01-29T01:07:26.339Z,74.238
2023-01-29T01:08:26.075Z,74.707
2023-01-29T01:09:25.840Z,74.692
2023-01-29T01:10:25.539Z,74.596
2023-01-29T01:11:26.205Z,74.701
2023-01-29T01:12:25.868Z,74.585
2023-01-29T01:13:25.598Z,74.415
2023-01-29T01:14:26.319Z,74.602
2023-01-29T01:15:26.232Z,74.623
2023-01-29T01:16:26.089Z,74.745
2023-01-29T01:17:25.835Z,74.724
2023-01-29T01:18:25.633Z,74.596
2023-01-29T01:19:25.402Z,74.509
2023-01-29T01:20:26.115Z,74.697
2023-01-29T01:21:25.875Z,74.194
2023-01-29T01:22:25.501Z,74.087
2023-01-29T01:23:26.262Z,74.301
2023-01-29T01:24:26.079Z,74.423
2023-01-29T01:25:25.828Z,74.373
2023-01-29T01:26:25.618Z,74.304
2023-01-29T01:27:26.254Z,74.234
2023-01-29T01:28:26.047Z,74.406
2023-01-29T01:29:25.797Z,74.327
2023-01-29T01:30:25.712Z,74.272
2023-01-29T01:31:25.874Z,74.251
2023-01-29T01:32:25.656Z,74.411
2023-01-29T01:33:25.336Z,74.438
2023-01-29T01:34:26.107Z,74.621
2023-01-29T01:35:25.901Z,74.737
2023-01-29T01:36:25.606Z,74.407
2023-01-29T01:37:26.219Z,74.400
2023-01-29T01:38:25.907Z,74.436
2023-01-29T01:39:25.542Z,74.251
2023-01-29T01:40:26.262Z,74.205
2023-01-29T01:41:25.923Z,74.035
2023-01-29T01:42:25.661Z,73.974
2023-01-29T01:43:26.323Z,74.104
2023-01-29T01:44:26.003Z,74.274
2023-01-29T01:45:25.629Z,74.249
2023-01-29T01:46:25.583Z,74.072
2023-01-29T01:47:26.202Z,74.135
2023-01-29T01:48:25.942Z,73.931
2023-01-29T01:49:25.726Z,74.026
2023-01-29T01:50:25.502Z,73.589
2023-01-29T01:51:26.235Z,73.768
2023-01-29T01:52:25.973Z,74.125
2023-01-29T01:53:25.863Z,74.005
2023-01-29T01:54:25.538Z,74.238
2023-01-29T01:55:26.200Z,73.990
2023-01-29T01:56:26.105Z,74.295
2023-01-29T01:57:25.855Z,74.335
2023-01-29T01:58:25.535Z,74.348
2023-01-29T01:59:26.354Z,74.173
2023-01-29T02:00:26.066Z,74.518
2023-01-29T02:01:27.611Z,74.564
2023-01-29T02:02:26.595Z,74.478
2023-01-29T02:03:26.232Z,74.346
2023-01-29T02:04:25.989Z,74.291
2023-01-29T02:05:25.835Z,74.379
2023-01-29T02:06:25.492Z,74.240
2023-01-29T02:07:26.172Z,74.310
2023-01-29T02:08:25.779Z,74.320
2023-01-29T02:09:25.660Z,74.257
2023-01-29T02:10:26.415Z,74.655
2023-01-29T02:11:26.067Z,74.634
2023-01-29T02:12:25.891Z,73.623
2023-01-29T02:13:25.636Z,73.849
2023-01-29T02:14:25.486Z,74.423
2023-01-29T02:15:25.458Z,74.316
2023-01-29T02:16:26.290Z,74.280
2023-01-29T02:17:26.100Z,74.266
2023-01-29T02:18:25.830Z,74.102
2023-01-29T02:19:25.799Z,74.095
2023-01-29T02:20:25.642Z,74.203
2023-01-29T02:21:25.513Z,74.419
2023-01-29T02:22:26.536Z,74.434
2023-01-29T02:23:26.254Z,74.682
2023-01-29T02:24:26.277Z,74.423
2023-01-29T02:25:25.545Z,74.539
2023-01-29T02:26:26.331Z,74.766
2023-01-29T02:27:26.102Z,74.600
2023-01-29T02:28:25.813Z,74.680
2023-01-29T02:29:25.498Z,74.850
2023-01-29T02:30:26.259Z,74.510
2023-01-29T02:31:26.203Z,74.520
2023-01-29T02:32:26.356Z,74.476
2023-01-29T02:33:25.931Z,74.617
2023-01-29T02:34:25.587Z,74.818
2023-01-29T02:35:26.291Z,74.650
2023-01-29T02:36:25.635Z,74.594
2023-01-29T02:37:26.423Z,74.657
2023-01-29T02:38:26.030Z,74.657
2023-01-29T02:39:25.624Z,74.781
2023-01-29T02:40:26.491Z,74.728
2023-01-29T02:41:26.264Z,74.604
2023-01-29T02:42:25.968Z,74.680
2023-01-29T02:43:26.371Z,74.592
2023-01-29T02:44:26.079Z,74.732
2023-01-29T02:45:25.887Z,74.568
2023-01-29T02:46:26.082Z,74.648
2023-01-29T02:47:25.654Z,74.652
2023-01-29T02:48:25.743Z,74.695
2023-01-29T02:49:25.458Z,74.880
2023-01-29T02:50:26.292Z,74.774
2023-01-29T02:51:25.962Z,74.650
2023-01-29T02:52:25.763Z,74.514
2023-01-29T02:53:25.372Z,74.705
2023-01-29T02:54:26.022Z,74.825
2023-01-29T02:55:25.962Z,74.762
2023-01-29T02:56:25.641Z,74.692
2023-01-29T02:57:26.264Z,74.684
2023-01-29T02:58:26.154Z,74.488
2023-01-29T02:59:25.855Z,74.850
2023-01-29T03:00:25.516Z,74.922
2023-01-29T03:01:26.000Z,74.737
2023-01-29T03:02:25.733Z,74.480
2023-01-29T03:03:25.595Z,74.222
2023-01-29T03:04:25.713Z,74.161
2023-01-29T03:05:25.539Z,74.352
2023-01-29T03:06:26.310Z,74.276
2023-01-29T03:07:26.103Z,74.413
2023-01-29T03:08:25.727Z,74.413
2023-01-29T03:09:25.456Z,74.564
2023-01-29T03:10:26.427Z,74.381
2023-01-29T03:11:26.148Z,74.446
2023-01-29T03:12:25.843Z,74.529
2023-01-29T03:13:25.635Z,74.528
2023-01-29T03:14:25.663Z,74.123
2023-01-29T03:15:26.083Z,74.491
2023-01-29T03:16:26.182Z,74.447
2023-01-29T03:17:26.016Z,74.053
2023-01-29T03:18:26.007Z,74.114
2023-01-29T03:19:25.832Z,74.024
2023-01-29T03:20:25.650Z,74.261
2023-01-29T03:21:25.712Z,74.488
2023-01-29T03:22:25.568Z,74.512
2023-01-29T03:23:26.299Z,74.373
2023-01-29T03:24:25.526Z,74.209
2023-01-29T03:25:26.328Z,74.604
2023-01-29T03:26:26.122Z,74.858
2023-01-29T03:27:25.907Z,74.800
2023-01-29T03:28:25.681Z,74.676
2023-01-29T03:29:25.582Z,74.900
2023-01-29T03:30:26.259Z,74.447
2023-01-29T03:31:26.137Z,74.406
2023-01-29T03:33:26.044Z,74.262
2023-01-29T03:34:25.991Z,74.432
2023-01-29T03:35:25.835Z,74.560
2023-01-29T03:36:25.570Z,74.568
2023-01-29T03:37:26.411Z,74.600
2023-01-29T03:38:26.079Z,74.568
2023-01-29T03:39:25.983Z,74.892
2023-01-29T03:40:25.723Z,74.404
2023-01-29T03:41:25.504Z,74.768
2023-01-29T03:42:26.215Z,74.610
2023-01-29T03:43:25.995Z,74.266
2023-01-29T03:44:25.657Z,74.377
2023-01-29T03:45:26.418Z,74.665
2023-01-29T03:46:26.220Z,74.674
2023-01-29T03:47:25.852Z,74.745
2023-01-29T03:48:25.695Z,74.884
2023-01-29T03:49:26.372Z,74.749
2023-01-29T03:50:26.172Z,74.510
2023-01-29T03:51:25.871Z,74.838
2023-01-29T03:52:25.507Z,74.802
2023-01-29T03:53:26.134Z,74.482
2023-01-29T03:54:25.791Z,74.348
2023-01-29T03:55:25.726Z,74.289
2023-01-29T03:56:25.530Z,74.276
2023-01-29T03:57:26.315Z,74.674
2023-01-29T03:58:25.946Z,74.531
2023-01-29T03:59:25.573Z,74.709
2023-01-29T04:00:26.397Z,74.570
2023-01-29T04:01:26.324Z,74.476
2023-01-29T04:02:26.202Z,74.341
2023-01-29T04:03:25.894Z,74.613
2023-01-29T04:04:25.835Z,74.154
2023-01-29T04:05:25.692Z,73.976
2023-01-29T04:06:25.411Z,74.348
2023-01-29T04:07:26.107Z,74.318
2023-01-29T04:08:25.751Z,74.453
2023-01-29T04:09:25.466Z,74.161
2023-01-29T04:10:26.244Z,74.379
2023-01-29T04:11:25.849Z,74.270
2023-01-29T04:12:25.499Z,74.589
2023-01-29T04:13:26.111Z,74.385
2023-01-29T04:14:25.907Z,74.295
2023-01-29T04:15:25.617Z,74.371
2023-01-29T04:16:26.382Z,74.745
2023-01-29T04:17:26.259Z,74.688
2023-01-29T04:18:25.887Z,74.522
2023-01-29T04:19:25.624Z,74.648
2023-01-29T04:20:26.311Z,74.447
2023-01-29T04:21:26.019Z,74.697
2023-01-29T04:22:25.722Z,74.827
2023-01-29T04:23:25.708Z,74.814
2023-01-29T04:24:26.405Z,74.886
2023-01-29T04:26:25.839Z,75.001
2023-01-29T04:27:25.506Z,74.938
2023-01-29T04:28:26.270Z,74.797
2023-01-29T04:29:26.965Z,74.594
2023-01-29T04:30:25.578Z,74.510
2023-01-29T04:31:25.641Z,74.489
2023-01-29T04:32:25.431Z,74.337
2023-01-29T04:33:26.114Z,74.533
2023-01-29T04:34:26.014Z,74.520
2023-01-29T04:35:25.780Z,74.489
2023-01-29T04:36:25.480Z,74.322
2023-01-29T04:37:26.128Z,74.558
2023-01-29T04:38:25.943Z,74.369
2023-01-29T04:39:25.679Z,74.512
2023-01-29T04:40:25.455Z,74.699
2023-01-29T04:41:26.257Z,74.440
2023-01-29T04:42:25.879Z,74.556
2023-01-29T04:43:25.472Z,74.468
2023-01-29T04:44:26.147Z,74.695
2023-01-29T04:45:25.791Z,75.056
2023-01-29T04:46:25.523Z,74.898
2023-01-29T04:47:26.496Z,74.903
2023-01-29T04:48:25.391Z,74.858
2023-01-29T04:49:26.032Z,74.938
2023-01-29T04:50:25.667Z,75.010
2023-01-29T04:51:25.526Z,74.976
2023-01-29T04:52:26.206Z,75.096
2023-01-29T04:53:25.852Z,74.886
2023-01-29T04:54:25.658Z,74.819
2023-01-29T04:55:25.534Z,74.682
2023-01-29T04:56:26.426Z,74.888
2023-01-29T04:57:26.098Z,75.275
2023-01-29T04:58:25.702Z,75.184
2023-01-29T04:59:26.393Z,75.195
2023-01-29T05:00:26.407Z,75.243
2023-01-29T05:01:26.436Z,75.865
2023-01-29T05:02:25.504Z,75.085
2023-01-29T05:03:26.405Z,74.919
2023-01-29T05:04:26.087Z,74.371
2023-01-29T05:05:25.855Z,74.745
2023-01-29T05:06:25.520Z,74.686
2023-01-29T05:07:26.356Z,75.456
2023-01-29T05:08:26.275Z,74.655
2023-01-29T05:09:25.970Z,74.623
2023-01-29T05:10:25.648Z,74.858
2023-01-29T05:11:26.336Z,74.999
2023-01-29T05:12:26.123Z,74.955
2023-01-29T05:13:25.794Z,75.140
2023-01-29T05:14:25.401Z,74.941
2023-01-29T05:15:26.131Z,74.871
2023-01-29T05:16:26.185Z,74.852
2023-01-29T05:17:25.919Z,74.873
2023-01-29T05:18:25.611Z,74.617
2023-01-29T05:19:26.391Z,75.001
2023-01-29T05:20:26.103Z,75.147
2023-01-29T05:21:25.874Z,75.193
2023-01-29T05:22:25.511Z,75.415
2023-01-29T05:24:26.007Z,75.115
2023-01-29T05:25:26.782Z,75.052
2023-01-29T05:26:25.618Z,74.688
2023-01-29T05:27:26.383Z,75.098
2023-01-29T05:29:25.703Z,75.037
2023-01-29T05:30:25.566Z,75.226
2023-01-29T05:31:26.583Z,75.109
2023-01-29T05:32:25.582Z,74.982
2023-01-29T05:33:26.327Z,74.945
2023-01-29T05:34:25.936Z,74.930
2023-01-29T05:35:25.643Z,74.713
2023-01-29T05:36:26.425Z,74.829
2023-01-29T05:37:26.091Z,74.678
2023-01-29T05:38:25.763Z,74.690
2023-01-29T05:39:25.425Z,74.781
2023-01-29T05:40:26.192Z,75.025
2023-01-29T05:41:25.892Z,74.970
2023-01-29T05:42:25.551Z,75.039
2023-01-29T05:43:26.270Z,75.085
2023-01-29T05:44:25.852Z,75.163
2023-01-29T05:45:25.611Z,75.323
2023-01-29T05:46:26.397Z,75.199
2023-01-29T05:47:26.178Z,74.940
2023-01-29T05:48:25.887Z,75.071
2023-01-29T05:49:25.551Z,75.172
2023-01-29T05:50:26.311Z,74.999
2023-01-29T05:51:25.999Z,74.983
2023-01-29T05:52:25.701Z,75.043
2023-01-29T05:53:25.555Z,74.751
2023-01-29T05:54:26.291Z,74.680
2023-01-29T05:55:26.272Z,74.863
2023-01-29T05:56:26.006Z,74.976
2023-01-29T05:57:25.966Z,75.132
2023-01-29T05:58:25.850Z,75.023
2023-01-29T05:59:25.587Z,75.069
2023-01-29T06:00:26.383Z,75.172
2023-01-29T06:01:26.146Z,75.268
2023-01-29T06:02:25.965Z,75.018
2023-01-29T06:03:25.744Z,74.894
2023-01-29T06:04:25.591Z,74.772
2023-01-29T06:05:26.283Z,74.879
2023-01-29T06:06:26.148Z,74.865
2023-01-29T06:07:26.051Z,75.111
2023-01-29T06:08:26.136Z,75.390
2023-01-29T06:09:25.761Z,74.896
2023-01-29T06:10:25.401Z,74.823
2023-01-29T06:11:26.057Z,74.758
2023-01-29T06:12:25.651Z,75.313
2023-01-29T06:13:26.266Z,74.879
2023-01-29T06:14:25.923Z,75.106
2023-01-29T06:15:25.647Z,74.707
2023-01-29T06:16:26.526Z,75.163
2023-01-29T06:17:26.200Z,74.802
2023-01-29T06:18:25.883Z,74.797
2023-01-29T06:19:25.670Z,74.928
2023-01-29T06:20:25.398Z,75.098
2023-01-29T06:21:26.039Z,75.098
2023-01-29T06:22:25.698Z,75.140
2023-01-29T06:23:26.346Z,75.249
2023-01-29T06:24:26.088Z,75.292
2023-01-29T06:25:25.863Z,75.451
2023-01-29T06:26:25.546Z,75.205
2023-01-29T06:27:26.310Z,75.140
2023-01-29T06:28:25.919Z,75.247
2023-01-29T06:29:25.649Z,75.231
2023-01-29T06:30:26.372Z,75.291
2023-01-29T06:31:38.984Z,75.094
2023-01-29T06:33:29.375Z,74.995
2023-01-29T06:34:30.055Z,74.852
2023-01-29T06:35:30.209Z,74.842
2023-01-29T06:36:29.982Z,75.340
2023-01-29T06:37:29.782Z,75.291
2023-01-29T06:38:29.433Z,75.626
2023-01-29T06:39:30.136Z,75.365
2023-01-29T06:40:29.872Z,75.237
2023-01-29T06:41:29.573Z,75.397
2023-01-29T06:42:30.320Z,75.584
2023-01-29T06:43:29.411Z,75.596
2023-01-29T06:44:30.031Z,75.649
2023-01-29T06:45:29.895Z,75.310
2023-01-29T06:46:29.651Z,75.231
2023-01-29T06:47:30.339Z,75.283
2023-01-29T06:48:30.043Z,75.382
2023-01-29T06:49:29.759Z,75.165
2023-01-29T06:50:29.442Z,75.355
2023-01-29T06:51:30.193Z,75.352
2023-01-29T06:52:29.947Z,75.411
2023-01-29T06:53:29.620Z,75.298
2023-01-29T06:54:29.461Z,75.123
2023-01-29T06:55:30.174Z,75.264
2023-01-29T06:56:29.838Z,75.397
2023-01-29T06:57:29.498Z,75.388
2023-01-29T06:58:30.299Z,75.435
2023-01-29T06:59:29.959Z,75.365
2023-01-29T07:00:31.585Z,75.172
2023-01-29T07:02:30.033Z,74.932
2023-01-29T07:03:29.668Z,75.022
2023-01-29T07:04:30.267Z,75.285
2023-01-29T07:05:29.940Z,75.365
2023-01-29T07:06:29.655Z,75.535
2023-01-29T07:07:30.359Z,75.561
2023-01-29T07:08:30.062Z,75.312
2023-01-29T07:09:29.766Z,75.243
2023-01-29T07:10:30.352Z,75.678
2023-01-29T07:11:30.087Z,75.512
2023-01-29T07:12:29.796Z,75.420
2023-01-29T07:13:29.421Z,75.666
2023-01-29T07:14:30.113Z,75.409
2023-01-29T07:15:29.780Z,75.397
2023-01-29T07:16:29.804Z,75.008
2023-01-29T07:17:29.537Z,74.882
2023-01-29T07:18:30.175Z,75.079
2023-01-29T07:19:29.956Z,74.846
2023-01-29T07:20:29.734Z,75.304
2023-01-29T07:21:29.363Z,75.363
2023-01-29T07:22:30.087Z,75.283
2023-01-29T07:23:29.866Z,75.538
2023-01-29T07:24:29.819Z,75.050
2023-01-29T07:25:29.578Z,74.875
2023-01-29T07:26:30.240Z,74.995
2023-01-29T07:27:29.954Z,74.505
2023-01-29T07:28:29.654Z,74.735
2023-01-29T07:29:30.311Z,74.755
2023-01-29T07:30:30.030Z,74.495
2023-01-29T07:31:29.955Z,74.888
2023-01-29T07:32:29.998Z,74.655
2023-01-29T07:33:29.664Z,74.850
2023-01-29T07:34:30.200Z,74.146
2023-01-29T07:35:29.795Z,74.556
2023-01-29T07:36:29.591Z,74.547
2023-01-29T07:37:30.229Z,74.350
2023-01-29T07:38:34.879Z,73.959
2023-01-29T07:39:29.555Z,74.241
2023-01-29T07:40:30.264Z,73.786
2023-01-29T07:41:29.918Z,73.257
2023-01-29T07:42:29.538Z,73.671
2023-01-29T07:43:30.312Z,73.566
2023-01-29T07:44:30.023Z,73.816
2023-01-29T07:45:29.957Z,73.702
2023-01-29T07:46:29.982Z,73.976
2023-01-29T07:47:29.603Z,73.797
2023-01-29T07:48:30.270Z,73.702
2023-01-29T07:49:29.940Z,73.705
2023-01-29T07:50:29.747Z,73.934
2023-01-29T07:51:29.393Z,74.007
2023-01-29T07:52:30.116Z,73.700
2023-01-29T07:53:31.206Z,73.826
2023-01-29T07:54:30.014Z,74.167
2023-01-29T07:55:29.768Z,73.866
2023-01-29T07:56:29.435Z,73.767
2023-01-29T07:57:30.099Z,73.871
2023-01-29T07:58:29.839Z,73.459
2023-01-29T07:59:29.576Z,73.929
2023-01-29T08:00:30.423Z,73.999
2023-01-29T08:01:30.290Z,73.688
2023-01-29T08:02:30.126Z,74.020
2023-01-29T08:03:29.928Z,73.934
2023-01-29T08:04:30.484Z,73.723
2023-01-29T08:05:30.141Z,73.866
2023-01-29T08:07:29.427Z,74.219
2023-01-29T08:09:32.430Z,74.110
2023-01-29T08:10:31.400Z,73.994
2023-01-29T08:11:32.049Z,73.631
2023-01-29T08:12:31.794Z,73.627
2023-01-29T08:13:31.659Z,73.768
2023-01-29T08:14:32.391Z,74.062
2023-01-29T08:15:32.102Z,74.110
2023-01-29T08:16:31.838Z,74.110
2023-01-29T08:17:31.866Z,73.211
2023-01-29T08:19:31.878Z,73.192
2023-01-29T08:20:31.700Z,73.326
2023-01-29T08:21:32.455Z,73.013
2023-01-29T08:22:32.246Z,73.374
2023-01-29T08:24:41.830Z,72.729
2023-01-29T08:26:40.993Z,72.901
2023-01-29T08:27:40.622Z,72.859
2023-01-29T08:28:40.511Z,73.236
2023-01-29T08:29:41.195Z,72.965
2023-01-29T08:30:40.944Z,73.072
2023-01-29T08:31:40.975Z,72.580
2023-01-29T08:32:40.758Z,73.013
2023-01-29T08:33:41.294Z,72.927
2023-01-29T08:34:41.015Z,73.387
2023-01-29T08:35:41.316Z,72.853
2023-01-29T08:36:40.946Z,72.660
2023-01-29T08:37:40.591Z,72.687
2023-01-29T08:38:41.324Z,72.243
2023-01-29T08:40:40.713Z,72.956
2023-01-29T08:41:40.391Z,72.553
2023-01-29T08:42:41.110Z,71.913
2023-01-29T08:44:41.079Z,71.520
2023-01-29T08:45:40.973Z,71.642
2023-01-29T08:46:40.655Z,71.703
2023-01-29T08:47:41.350Z,71.819
2023-01-29T08:49:40.623Z,72.124
2023-01-29T08:51:41.303Z,72.159
2023-01-29T08:52:40.474Z,72.342
2023-01-29T08:53:41.114Z,72.340
2023-01-29T08:54:40.847Z,72.340
2023-01-29T08:56:41.200Z,72.637
2023-01-29T08:57:41.028Z,72.321
2023-01-29T08:58:40.830Z,72.437
2023-01-29T08:59:40.796Z,71.827
2023-01-29T09:01:41.383Z,72.172
2023-01-29T09:02:41.200Z,71.768
2023-01-29T09:03:40.955Z,71.821
2023-01-29T09:04:40.740Z,71.815
2023-01-29T09:06:41.164Z,71.670
2023-01-29T09:07:40.799Z,71.768
2023-01-29T09:08:40.573Z,71.363
2023-01-29T09:09:41.211Z,71.241
2023-01-29T09:10:40.920Z,71.056
2023-01-29T09:11:40.658Z,71.144
2023-01-29T09:12:41.288Z,71.317
2023-01-29T09:13:40.941Z,71.773
2023-01-29T09:14:40.578Z,71.790
2023-01-29T09:15:41.262Z,71.495
2023-01-29T09:16:40.699Z,70.764
2023-01-29T09:17:40.571Z,71.016
2023-01-29T09:18:41.283Z,71.190
2023-01-29T09:19:41.002Z,71.312
2023-01-29T09:20:40.903Z,71.401
2023-01-29T09:21:40.563Z,70.968
2023-01-29T09:22:41.326Z,71.291
2023-01-29T09:23:40.970Z,70.623
2023-01-29T09:24:40.642Z,70.555
2023-01-29T09:25:41.316Z,70.522
2023-01-29T09:26:41.040Z,70.686
2023-01-29T09:27:40.771Z,70.703
2023-01-29T09:28:40.588Z,69.809
2023-01-29T09:29:41.265Z,69.641
2023-01-29T09:30:41.136Z,70.137
2023-01-29T09:31:41.179Z,69.772
2023-01-29T09:32:53.833Z,69.618
2023-01-29T09:34:43.711Z,68.998
2023-01-29T09:35:43.411Z,68.275
2023-01-29T09:36:43.351Z,68.466
2023-01-29T09:37:43.979Z,68.662
2023-01-29T09:38:43.651Z,67.816
2023-01-29T09:39:44.311Z,68.664
2023-01-29T09:40:43.953Z,69.942
2023-01-29T09:41:43.607Z,69.195
2023-01-29T09:42:43.589Z,69.093
2023-01-29T09:43:44.314Z,69.099
2023-01-29T09:44:43.975Z,68.577
2023-01-29T09:46:43.571Z,69.319
2023-01-29T09:47:44.302Z,68.481
2023-01-29T09:49:43.750Z,68.243
2023-01-29T09:50:43.410Z,68.548
2023-01-29T09:51:44.070Z,68.258
2023-01-29T09:52:43.742Z,68.279
2023-01-29T09:54:44.116Z,68.268
2023-01-29T09:55:43.796Z,68.315
2023-01-29T09:57:44.135Z,68.611
2023-01-29T09:59:43.812Z,68.189
2023-01-29T10:00:43.688Z,67.606
2023-01-29T10:01:43.656Z,67.941
2023-01-29T10:02:43.585Z,67.312
2023-01-29T10:03:44.224Z,67.447
2023-01-29T10:04:44.036Z,67.888
2023-01-29T10:05:43.784Z,68.462
2023-01-29T10:06:43.448Z,68.512
2023-01-29T10:07:43.412Z,68.325
2023-01-29T10:08:44.132Z,68.413
2023-01-29T10:09:43.784Z,68.743
2023-01-29T10:10:43.406Z,68.674
2023-01-29T10:11:44.029Z,68.931
2023-01-29T10:12:43.710Z,69.257
2023-01-29T10:14:44.055Z,69.385
2023-01-29T10:15:43.758Z,69.374
2023-01-29T10:16:44.499Z,69.446
2023-01-29T10:17:43.491Z,69.448
2023-01-29T10:19:44.070Z,68.861
2023-01-29T10:20:43.727Z,69.145
2023-01-29T10:21:44.375Z,69.484
2023-01-29T10:22:44.012Z,69.481
2023-01-29T10:24:43.368Z,68.813
2023-01-29T10:25:43.971Z,68.619
2023-01-29T10:26:43.831Z,68.508
2023-01-29T10:27:43.536Z,69.153
2023-01-29T10:28:44.178Z,68.485
2023-01-29T10:29:43.886Z,68.346
2023-01-29T10:30:43.819Z,68.611
2023-01-29T10:31:44.175Z,68.109
2023-01-29T10:32:44.099Z,68.039
2023-01-29T10:33:59.417Z,67.421
2023-01-29T10:34:44.248Z,67.566
2023-01-29T10:36:43.543Z,67.587
2023-01-29T10:37:44.217Z,67.623
2023-01-29T10:38:43.863Z,67.037
2023-01-29T10:39:43.526Z,67.169
2023-01-29T10:41:44.026Z,67.625
2023-01-29T10:42:43.645Z,67.726
2023-01-29T10:43:44.343Z,66.890
2023-01-29T10:44:44.058Z,66.545
2023-01-29T10:45:43.765Z,66.623
2023-01-29T10:46:43.402Z,66.774
2023-01-29T10:47:44.409Z,66.284
2023-01-29T10:48:44.140Z,65.906
2023-01-29T10:49:43.863Z,65.708
2023-01-29T10:50:43.615Z,65.666
2023-01-29T10:51:44.305Z,64.892
2023-01-29T10:52:43.980Z,66.595
2023-01-29T10:53:43.572Z,67.136
2023-01-29T10:54:44.265Z,67.178
2023-01-29T10:56:43.769Z,65.063
2023-01-29T10:57:43.457Z,65.017
2023-01-29T10:59:43.600Z,64.722
2023-01-29T11:00:44.520Z,64.712
2023-01-29T11:01:44.342Z,65.324
2023-01-29T11:02:44.408Z,64.838
2023-01-29T11:03:47.725Z,65.702
2023-01-29T11:04:43.547Z,65.469
2023-01-29T11:05:44.221Z,67.047
2023-01-29T11:06:43.892Z,66.881
2023-01-29T11:07:43.523Z,65.901
2023-01-29T11:08:44.166Z,65.279
2023-01-29T11:09:43.901Z,65.162
2023-01-29T11:10:43.690Z,65.332
2023-01-29T11:11:44.302Z,65.525
2023-01-29T11:12:44.114Z,65.513
2023-01-29T11:13:43.801Z,65.132
2023-01-29T11:14:43.593Z,65.407
2023-01-29T11:16:44.027Z,66.011
2023-01-29T11:17:44.511Z,66.438
2023-01-29T11:18:44.186Z,65.563
2023-01-29T11:19:43.887Z,65.864
2023-01-29T11:21:44.244Z,65.786
2023-01-29T11:22:43.856Z,65.015
2023-01-29T11:23:43.514Z,65.715
2023-01-29T11:24:44.309Z,65.065
2023-01-29T11:25:44.128Z,64.998
2023-01-29T11:26:44.288Z,64.754
2023-01-29T11:27:43.945Z,63.076
2023-01-29T11:28:43.671Z,63.190
2023-01-29T11:29:43.812Z,63.783
2023-01-29T11:30:43.615Z,63.692
2023-01-29T11:31:43.658Z,63.394
2023-01-29T11:33:44.225Z,64.468
2023-01-29T11:34:44.043Z,63.635
2023-01-29T11:35:43.847Z,64.966
2023-01-29T11:36:43.657Z,64.766
2023-01-29T11:37:43.434Z,64.968
2023-01-29T11:38:44.358Z,64.020
2023-01-29T11:39:44.050Z,65.361
2023-01-29T11:41:43.647Z,66.141
2023-01-29T11:42:44.332Z,65.094
2023-01-29T11:43:43.998Z,65.698
2023-01-29T11:44:43.778Z,66.076
2023-01-29T11:46:44.135Z,65.063
2023-01-29T11:48:43.404Z,66.309
2023-01-29T11:50:47.804Z,66.255
2023-01-29T11:51:48.064Z,66.375
2023-01-29T11:52:47.879Z,66.822
2023-01-29T11:53:47.492Z,66.471
2023-01-29T11:54:48.296Z,66.194
2023-01-29T11:55:53.016Z,65.250
2023-01-29T11:56:47.667Z,64.975
2023-01-29T11:57:48.268Z,64.113
2023-01-29T11:58:47.929Z,63.968
2023-01-29T11:59:47.619Z,65.891
2023-01-29T12:00:48.248Z,66.305
2023-01-29T12:01:47.920Z,66.524
2023-01-29T12:02:47.651Z,67.219
2023-01-29T12:04:47.423Z,65.939
2023-01-29T12:05:48.412Z,66.082
2023-01-29T12:06:48.179Z,66.023
2023-01-29T12:07:47.863Z,65.387
2023-01-29T12:09:48.297Z,63.921
2023-01-29T12:10:48.036Z,63.953
2023-01-29T12:12:48.446Z,64.228
2023-01-29T12:13:48.141Z,63.762
2023-01-29T12:14:47.855Z,63.249
2023-01-29T12:15:47.820Z,63.490
2023-01-29T12:17:48.435Z,64.895
2023-01-29T12:18:48.159Z,65.246
2023-01-29T12:19:47.999Z,65.391
2023-01-29T12:20:47.756Z,65.143
2023-01-29T12:21:47.621Z,65.641
2023-01-29T12:22:48.151Z,65.393
2023-01-29T12:23:48.015Z,65.345
2023-01-29T12:24:47.644Z,65.927
2023-01-29T12:25:48.319Z,65.435
2023-01-29T12:26:48.006Z,65.660
2023-01-29T12:27:47.644Z,65.584
2023-01-29T12:28:48.277Z,66.108
2023-01-29T12:29:48.104Z,66.757
2023-01-29T12:30:47.818Z,66.532
2023-01-29T12:31:48.150Z,66.339
2023-01-29T12:33:47.543Z,65.677
2023-01-29T12:34:48.311Z,65.063
2023-01-29T12:35:47.987Z,65.693
2023-01-29T12:36:47.587Z,65.500
2023-01-29T12:37:48.239Z,65.416
2023-01-29T12:38:47.935Z,65.399
2023-01-29T12:39:47.597Z,65.124
2023-01-29T12:40:48.287Z,64.611
2023-01-29T12:41:48.767Z,64.748
2023-01-29T12:42:47.402Z,64.579
2023-01-29T12:43:48.045Z,63.707
2023-01-29T12:44:47.647Z,64.073
2023-01-29T12:45:48.318Z,64.233
2023-01-29T12:46:48.050Z,64.209
2023-01-29T12:47:47.995Z,64.251
2023-01-29T12:48:47.557Z,64.214
2023-01-29T12:49:48.183Z,63.396
2023-01-29T12:50:47.813Z,64.663
2023-01-29T12:51:47.505Z,64.529
2023-01-29T12:52:48.107Z,64.348
2023-01-29T12:53:47.676Z,63.944
2023-01-29T12:54:48.381Z,64.459
2023-01-29T12:55:47.994Z,64.418
2023-01-29T12:57:48.336Z,63.287
2023-01-29T12:58:48.020Z,63.577
2023-01-29T12:59:48.631Z,64.487
2023-01-29T13:00:48.438Z,63.223
2023-01-29T13:01:48.294Z,61.943
2023-01-29T13:03:48.045Z,63.085
2023-01-29T13:05:48.397Z,63.770
2023-01-29T13:06:48.109Z,63.213
2023-01-29T13:08:47.635Z,63.877
2023-01-29T13:09:48.282Z,64.190
2023-01-29T13:10:48.002Z,64.598
2023-01-29T13:11:47.975Z,63.635
2023-01-29T13:13:48.243Z,64.441
2023-01-29T13:14:47.912Z,64.798
2023-01-29T13:16:48.363Z,65.212
2023-01-29T13:17:47.999Z,64.979
2023-01-29T13:18:47.711Z,65.590
2023-01-29T13:19:47.415Z,65.317
2023-01-29T13:20:49.650Z,65.744
2023-01-29T13:21:48.536Z,65.962